sensor_id;sensor_type;location;lat;lon;timestamp;temperature;humidity
73570;SHT30;61850;54.980;73.298;2023-06-04T00:00:47;24.56;43.17
73570;SHT30;61850;54.980;73.298;2023-06-04T00:03:14;24.56;42.72
73570;SHT30;61850;54.980;73.298;2023-06-04T00:05:40;24.55;43.92
73570;SHT30;61850;54.980;73.298;2023-06-04T00:08:06;24.57;43.24
73570;SHT30;61850;54.980;73.298;2023-06-04T00:10:32;24.60;43.14
73570;SHT30;61850;54.980;73.298;2023-06-04T00:13:00;24.63;44.00
73570;SHT30;61850;54.980;73.298;2023-06-04T00:15:26;24.64;44.21
73570;SHT30;61850;54.980;73.298;2023-06-04T00:17:52;24.68;43.26
73570;SHT30;61850;54.980;73.298;2023-06-04T00:20:18;24.76;42.52
73570;SHT30;61850;54.980;73.298;2023-06-04T00:22:44;24.83;42.80
73570;SHT30;61850;54.980;73.298;2023-06-04T00:25:10;24.91;43.15
73570;SHT30;61850;54.980;73.298;2023-06-04T00:27:37;24.97;43.69
73570;SHT30;61850;54.980;73.298;2023-06-04T00:30:04;25.03;43.51
73570;SHT30;61850;54.980;73.298;2023-06-04T00:32:30;25.01;44.91
73570;SHT30;61850;54.980;73.298;2023-06-04T00:34:57;25.05;45.33
73570;SHT30;61850;54.980;73.298;2023-06-04T00:37:28;25.05;45.07
73570;SHT30;61850;54.980;73.298;2023-06-04T00:39:54;25.08;45.62
73570;SHT30;61850;54.980;73.298;2023-06-04T00:42:22;25.08;45.72
73570;SHT30;61850;54.980;73.298;2023-06-04T00:44:49;25.17;45.39
73570;SHT30;61850;54.980;73.298;2023-06-04T00:47:16;25.22;45.99
73570;SHT30;61850;54.980;73.298;2023-06-04T00:49:43;25.22;46.37
73570;SHT30;61850;54.980;73.298;2023-06-04T00:52:10;25.29;45.93
73570;SHT30;61850;54.980;73.298;2023-06-04T00:54:37;25.34;45.91
73570;SHT30;61850;54.980;73.298;2023-06-04T00:57:04;25.39;45.96
73570;SHT30;61850;54.980;73.298;2023-06-04T00:59:32;25.47;45.09
73570;SHT30;61850;54.980;73.298;2023-06-04T01:02:12;25.49;46.33
73570;SHT30;61850;54.980;73.298;2023-06-04T01:07:22;25.58;44.81
73570;SHT30;61850;54.980;73.298;2023-06-04T01:09:52;25.56;44.57
73570;SHT30;61850;54.980;73.298;2023-06-04T01:12:18;25.62;44.51
73570;SHT30;61850;54.980;73.298;2023-06-04T01:14:45;25.72;44.68
73570;SHT30;61850;54.980;73.298;2023-06-04T01:17:34;25.86;42.77
73570;SHT30;61850;54.980;73.298;2023-06-04T01:20:16;25.98;41.87
73570;SHT30;61850;54.980;73.298;2023-06-04T01:25:38;26.07;42.77
73570;SHT30;61850;54.980;73.298;2023-06-04T01:28:06;26.13;43.55
73570;SHT30;61850;54.980;73.298;2023-06-04T01:30:35;26.27;43.12
73570;SHT30;61850;54.980;73.298;2023-06-04T01:33:03;26.35;42.42
73570;SHT30;61850;54.980;73.298;2023-06-04T01:35:29;26.42;43.37
73570;SHT30;61850;54.980;73.298;2023-06-04T01:37:59;26.51;43.71
73570;SHT30;61850;54.980;73.298;2023-06-04T01:40:25;26.62;43.38
73570;SHT30;61850;54.980;73.298;2023-06-04T01:42:53;26.75;43.65
73570;SHT30;61850;54.980;73.298;2023-06-04T01:45:25;26.78;42.92
73570;SHT30;61850;54.980;73.298;2023-06-04T01:47:51;26.85;43.51
73570;SHT30;61850;54.980;73.298;2023-06-04T01:50:19;26.85;44.07
73570;SHT30;61850;54.980;73.298;2023-06-04T01:52:46;26.89;44.41
73570;SHT30;61850;54.980;73.298;2023-06-04T01:55:14;26.96;44.49
73570;SHT30;61850;54.980;73.298;2023-06-04T01:57:42;27.03;44.06
73570;SHT30;61850;54.980;73.298;2023-06-04T02:00:10;27.11;44.04
73570;SHT30;61850;54.980;73.298;2023-06-04T02:02:44;27.16;43.85
73570;SHT30;61850;54.980;73.298;2023-06-04T02:05:11;27.30;43.10
73570;SHT30;61850;54.980;73.298;2023-06-04T02:07:39;27.37;42.71
73570;SHT30;61850;54.980;73.298;2023-06-04T02:10:08;27.46;42.46
73570;SHT30;61850;54.980;73.298;2023-06-04T02:12:37;27.58;41.27
73570;SHT30;61850;54.980;73.298;2023-06-04T02:15:06;27.68;41.09
73570;SHT30;61850;54.980;73.298;2023-06-04T02:17:33;27.81;41.04
73570;SHT30;61850;54.980;73.298;2023-06-04T02:20:04;27.91;41.25
73570;SHT30;61850;54.980;73.298;2023-06-04T02:22:31;27.92;40.93
73570;SHT30;61850;54.980;73.298;2023-06-04T02:24:59;27.96;41.28
73570;SHT30;61850;54.980;73.298;2023-06-04T02:27:26;28.02;41.09
73570;SHT30;61850;54.980;73.298;2023-06-04T02:29:55;28.16;41.19
73570;SHT30;61850;54.980;73.298;2023-06-04T02:32:22;28.26;40.27
73570;SHT30;61850;54.980;73.298;2023-06-04T02:34:50;28.40;40.27
73570;SHT30;61850;54.980;73.298;2023-06-04T02:37:16;28.49;40.04
73570;SHT30;61850;54.980;73.298;2023-06-04T02:39:43;28.57;39.66
73570;SHT30;61850;54.980;73.298;2023-06-04T02:42:09;28.71;39.65
73570;SHT30;61850;54.980;73.298;2023-06-04T02:44:35;28.83;39.62
73570;SHT30;61850;54.980;73.298;2023-06-04T02:47:01;28.90;39.58
73570;SHT30;61850;54.980;73.298;2023-06-04T02:49:27;28.95;39.76
73570;SHT30;61850;54.980;73.298;2023-06-04T02:51:53;29.01;39.99
73570;SHT30;61850;54.980;73.298;2023-06-04T02:54:19;29.00;40.15
73570;SHT30;61850;54.980;73.298;2023-06-04T02:56:45;29.14;39.93
73570;SHT30;61850;54.980;73.298;2023-06-04T02:59:12;29.21;39.97
73570;SHT30;61850;54.980;73.298;2023-06-04T03:01:40;29.28;39.75
73570;SHT30;61850;54.980;73.298;2023-06-04T03:04:06;29.41;39.66
73570;SHT30;61850;54.980;73.298;2023-06-04T03:06:36;29.48;39.65
73570;SHT30;61850;54.980;73.298;2023-06-04T03:09:05;29.58;39.33
73570;SHT30;61850;54.980;73.298;2023-06-04T03:11:32;29.66;39.30
73570;SHT30;61850;54.980;73.298;2023-06-04T03:13:59;29.76;39.24
73570;SHT30;61850;54.980;73.298;2023-06-04T03:16:25;29.79;39.41
73570;SHT30;61850;54.980;73.298;2023-06-04T03:18:51;29.87;39.10
73570;SHT30;61850;54.980;73.298;2023-06-04T03:21:17;29.93;39.06
73570;SHT30;61850;54.980;73.298;2023-06-04T03:23:43;30.04;39.08
73570;SHT30;61850;54.980;73.298;2023-06-04T03:26:10;30.20;39.24
73570;SHT30;61850;54.980;73.298;2023-06-04T03:28:39;30.25;39.26
73570;SHT30;61850;54.980;73.298;2023-06-04T03:31:07;30.29;39.74
73570;SHT30;61850;54.980;73.298;2023-06-04T03:33:33;30.39;38.64
73570;SHT30;61850;54.980;73.298;2023-06-04T03:35:59;30.48;38.47
73570;SHT30;61850;54.980;73.298;2023-06-04T03:38:26;30.58;38.83
73570;SHT30;61850;54.980;73.298;2023-06-04T03:40:52;30.68;37.93
73570;SHT30;61850;54.980;73.298;2023-06-04T03:43:20;30.76;37.35
73570;SHT30;61850;54.980;73.298;2023-06-04T03:45:48;30.83;37.79
73570;SHT30;61850;54.980;73.298;2023-06-04T03:48:14;30.89;37.62
73570;SHT30;61850;54.980;73.298;2023-06-04T03:50:42;31.02;37.59
73570;SHT30;61850;54.980;73.298;2023-06-04T03:53:14;31.06;37.54
73570;SHT30;61850;54.980;73.298;2023-06-04T03:55:41;31.20;37.33
73570;SHT30;61850;54.980;73.298;2023-06-04T03:58:09;31.23;37.39
73570;SHT30;61850;54.980;73.298;2023-06-04T04:00:40;31.31;37.12
73570;SHT30;61850;54.980;73.298;2023-06-04T04:03:07;31.43;37.52
73570;SHT30;61850;54.980;73.298;2023-06-04T04:05:36;31.51;37.86
73570;SHT30;61850;54.980;73.298;2023-06-04T04:08:03;31.58;38.03
73570;SHT30;61850;54.980;73.298;2023-06-04T04:10:32;31.64;37.47
73570;SHT30;61850;54.980;73.298;2023-06-04T04:12:58;31.72;37.51
73570;SHT30;61850;54.980;73.298;2023-06-04T04:15:27;31.74;37.74
73570;SHT30;61850;54.980;73.298;2023-06-04T04:17:55;31.81;36.86
73570;SHT30;61850;54.980;73.298;2023-06-04T04:20:21;31.91;37.43
73570;SHT30;61850;54.980;73.298;2023-06-04T04:22:54;31.99;37.50
73570;SHT30;61850;54.980;73.298;2023-06-04T04:25:20;32.09;36.90
73570;SHT30;61850;54.980;73.298;2023-06-04T04:27:47;32.15;36.95
73570;SHT30;61850;54.980;73.298;2023-06-04T04:30:14;32.25;37.16
73570;SHT30;61850;54.980;73.298;2023-06-04T04:32:48;32.25;37.36
73570;SHT30;61850;54.980;73.298;2023-06-04T04:35:21;32.39;36.57
73570;SHT30;61850;54.980;73.298;2023-06-04T04:37:51;32.47;35.73
73570;SHT30;61850;54.980;73.298;2023-06-04T04:40:17;32.59;36.00
73570;SHT30;61850;54.980;73.298;2023-06-04T04:42:47;32.64;35.49
73570;SHT30;61850;54.980;73.298;2023-06-04T04:45:15;32.68;35.36
73570;SHT30;61850;54.980;73.298;2023-06-04T04:47:44;32.68;34.95
73570;SHT30;61850;54.980;73.298;2023-06-04T04:50:10;32.71;34.91
73570;SHT30;61850;54.980;73.298;2023-06-04T04:52:37;32.83;34.59
73570;SHT30;61850;54.980;73.298;2023-06-04T04:55:03;32.91;34.76
73570;SHT30;61850;54.980;73.298;2023-06-04T04:57:32;32.95;34.36
73570;SHT30;61850;54.980;73.298;2023-06-04T04:59:59;33.01;34.27
73570;SHT30;61850;54.980;73.298;2023-06-04T05:02:26;33.07;34.08
73570;SHT30;61850;54.980;73.298;2023-06-04T05:04:54;33.15;34.17
73570;SHT30;61850;54.980;73.298;2023-06-04T05:07:20;33.19;33.75
73570;SHT30;61850;54.980;73.298;2023-06-04T05:09:49;33.24;34.41
73570;SHT30;61850;54.980;73.298;2023-06-04T05:12:15;33.29;34.45
73570;SHT30;61850;54.980;73.298;2023-06-04T05:14:42;33.36;34.00
73570;SHT30;61850;54.980;73.298;2023-06-04T05:17:09;33.39;33.36
73570;SHT30;61850;54.980;73.298;2023-06-04T05:19:37;33.41;32.36
73570;SHT30;61850;54.980;73.298;2023-06-04T05:22:05;33.44;32.57
73570;SHT30;61850;54.980;73.298;2023-06-04T05:24:32;33.46;32.18
73570;SHT30;61850;54.980;73.298;2023-06-04T05:27:01;33.51;32.45
73570;SHT30;61850;54.980;73.298;2023-06-04T05:29:30;33.52;31.48
73570;SHT30;61850;54.980;73.298;2023-06-04T05:31:56;33.62;31.55
73570;SHT30;61850;54.980;73.298;2023-06-04T05:34:24;33.73;31.42
73570;SHT30;61850;54.980;73.298;2023-06-04T05:36:53;33.73;30.76
73570;SHT30;61850;54.980;73.298;2023-06-04T05:39:24;33.83;30.56
73570;SHT30;61850;54.980;73.298;2023-06-04T05:42:20;33.93;30.65
73570;SHT30;61850;54.980;73.298;2023-06-04T05:44:46;33.92;31.53
73570;SHT30;61850;54.980;73.298;2023-06-04T05:47:16;33.93;31.35
73570;SHT30;61850;54.980;73.298;2023-06-04T05:49:47;33.93;31.64
73570;SHT30;61850;54.980;73.298;2023-06-04T05:52:13;33.96;32.20
73570;SHT30;61850;54.980;73.298;2023-06-04T05:54:41;34.06;32.65
73570;SHT30;61850;54.980;73.298;2023-06-04T05:57:08;34.16;32.94
73570;SHT30;61850;54.980;73.298;2023-06-04T05:59:34;34.16;32.68
73570;SHT30;61850;54.980;73.298;2023-06-04T06:02:03;34.19;32.60
73570;SHT30;61850;54.980;73.298;2023-06-04T06:04:30;34.25;32.81
73570;SHT30;61850;54.980;73.298;2023-06-04T06:06:57;34.37;32.88
73570;SHT30;61850;54.980;73.298;2023-06-04T06:09:23;34.41;32.12
73570;SHT30;61850;54.980;73.298;2023-06-04T06:11:49;34.61;31.87
73570;SHT30;61850;54.980;73.298;2023-06-04T06:14:16;34.59;30.93
73570;SHT30;61850;54.980;73.298;2023-06-04T06:16:42;34.62;30.61
73570;SHT30;61850;54.980;73.298;2023-06-04T06:19:08;34.68;29.79
73570;SHT30;61850;54.980;73.298;2023-06-04T06:21:34;34.65;30.12
73570;SHT30;61850;54.980;73.298;2023-06-04T06:24:01;34.77;30.19
73570;SHT30;61850;54.980;73.298;2023-06-04T06:26:27;34.71;29.86
73570;SHT30;61850;54.980;73.298;2023-06-04T06:28:56;34.68;30.36
73570;SHT30;61850;54.980;73.298;2023-06-04T06:31:24;34.85;29.78
73570;SHT30;61850;54.980;73.298;2023-06-04T06:33:52;34.85;29.82
73570;SHT30;61850;54.980;73.298;2023-06-04T06:36:19;35.00;29.79
73570;SHT30;61850;54.980;73.298;2023-06-04T06:38:45;35.06;29.94
73570;SHT30;61850;54.980;73.298;2023-06-04T06:41:12;35.12;30.39
73570;SHT30;61850;54.980;73.298;2023-06-04T06:43:38;35.12;29.58
73570;SHT30;61850;54.980;73.298;2023-06-04T06:46:04;35.27;30.18
73570;SHT30;61850;54.980;73.298;2023-06-04T06:48:31;35.30;30.29
73570;SHT30;61850;54.980;73.298;2023-06-04T06:50:58;35.20;30.44
73570;SHT30;61850;54.980;73.298;2023-06-04T06:53:25;35.26;29.85
73570;SHT30;61850;54.980;73.298;2023-06-04T06:55:51;35.36;30.00
73570;SHT30;61850;54.980;73.298;2023-06-04T06:58:17;35.36;30.24
73570;SHT30;61850;54.980;73.298;2023-06-04T07:00:43;35.43;30.99
73570;SHT30;61850;54.980;73.298;2023-06-04T07:03:20;35.47;31.23
73570;SHT30;61850;54.980;73.298;2023-06-04T07:05:47;35.47;31.25
73570;SHT30;61850;54.980;73.298;2023-06-04T07:08:14;35.46;31.08
73570;SHT30;61850;54.980;73.298;2023-06-04T07:10:40;35.39;31.35
73570;SHT30;61850;54.980;73.298;2023-06-04T07:13:06;35.39;31.04
73570;SHT30;61850;54.980;73.298;2023-06-04T07:15:32;35.57;30.80
73570;SHT30;61850;54.980;73.298;2023-06-04T07:17:58;35.65;30.28
73570;SHT30;61850;54.980;73.298;2023-06-04T07:20:24;35.69;29.99
73570;SHT30;61850;54.980;73.298;2023-06-04T07:22:51;35.76;30.13
73570;SHT30;61850;54.980;73.298;2023-06-04T07:25:17;35.73;30.11
73570;SHT30;61850;54.980;73.298;2023-06-04T07:27:43;35.80;30.16
73570;SHT30;61850;54.980;73.298;2023-06-04T07:30:09;35.91;29.78
73570;SHT30;61850;54.980;73.298;2023-06-04T07:32:35;35.81;29.65
73570;SHT30;61850;54.980;73.298;2023-06-04T07:35:02;35.67;29.97
73570;SHT30;61850;54.980;73.298;2023-06-04T07:37:28;35.69;29.97
73570;SHT30;61850;54.980;73.298;2023-06-04T07:39:54;35.77;30.33
73570;SHT30;61850;54.980;73.298;2023-06-04T07:42:21;35.85;30.58
73570;SHT30;61850;54.980;73.298;2023-06-04T07:44:48;35.94;30.45
73570;SHT30;61850;54.980;73.298;2023-06-04T07:47:15;36.06;30.00
73570;SHT30;61850;54.980;73.298;2023-06-04T07:49:41;36.04;30.05
73570;SHT30;61850;54.980;73.298;2023-06-04T07:52:07;35.97;30.03
73570;SHT30;61850;54.980;73.298;2023-06-04T07:54:33;35.88;30.09
73570;SHT30;61850;54.980;73.298;2023-06-04T07:57:00;36.14;29.96
73570;SHT30;61850;54.980;73.298;2023-06-04T07:59:26;36.25;30.26
73570;SHT30;61850;54.980;73.298;2023-06-04T08:01:55;36.31;29.89
73570;SHT30;61850;54.980;73.298;2023-06-04T08:04:21;36.25;29.70
73570;SHT30;61850;54.980;73.298;2023-06-04T08:06:47;36.45;29.91
73570;SHT30;61850;54.980;73.298;2023-06-04T08:09:15;36.69;28.82
73570;SHT30;61850;54.980;73.298;2023-06-04T08:11:42;36.87;28.66
73570;SHT30;61850;54.980;73.298;2023-06-04T08:14:11;37.31;28.95
73570;SHT30;61850;54.980;73.298;2023-06-04T08:16:39;38.03;28.14
73570;SHT30;61850;54.980;73.298;2023-06-04T08:19:06;38.32;27.70
73570;SHT30;61850;54.980;73.298;2023-06-04T08:21:34;38.92;27.71
73570;SHT30;61850;54.980;73.298;2023-06-04T08:24:00;39.22;27.40
73570;SHT30;61850;54.980;73.298;2023-06-04T08:26:26;39.46;27.37
73570;SHT30;61850;54.980;73.298;2023-06-04T08:28:55;39.74;27.86
73570;SHT30;61850;54.980;73.298;2023-06-04T08:31:21;39.69;27.19
73570;SHT30;61850;54.980;73.298;2023-06-04T08:33:47;39.70;27.20
73570;SHT30;61850;54.980;73.298;2023-06-04T08:36:14;40.18;27.65
73570;SHT30;61850;54.980;73.298;2023-06-04T08:38:41;39.87;27.17
73570;SHT30;61850;54.980;73.298;2023-06-04T08:41:33;39.50;27.20
73570;SHT30;61850;54.980;73.298;2023-06-04T08:44:04;40.01;27.25
73570;SHT30;61850;54.980;73.298;2023-06-04T08:46:32;40.32;27.18
73570;SHT30;61850;54.980;73.298;2023-06-04T08:49:02;40.58;27.12
73570;SHT30;61850;54.980;73.298;2023-06-04T08:51:32;40.69;26.61
73570;SHT30;61850;54.980;73.298;2023-06-04T08:53:59;40.68;26.33
73570;SHT30;61850;54.980;73.298;2023-06-04T08:56:26;40.25;26.33
73570;SHT30;61850;54.980;73.298;2023-06-04T08:58:56;40.62;26.37
73570;SHT30;61850;54.980;73.298;2023-06-04T09:01:27;40.98;26.72
73570;SHT30;61850;54.980;73.298;2023-06-04T09:04:05;40.78;26.66
73570;SHT30;61850;54.980;73.298;2023-06-04T09:06:33;40.89;26.88
73570;SHT30;61850;54.980;73.298;2023-06-04T09:09:02;41.23;26.58
73570;SHT30;61850;54.980;73.298;2023-06-04T09:11:41;41.43;25.81
73570;SHT30;61850;54.980;73.298;2023-06-04T09:14:08;41.36;25.92
73570;SHT30;61850;54.980;73.298;2023-06-04T09:19:15;41.25;26.05
73570;SHT30;61850;54.980;73.298;2023-06-04T09:21:52;41.46;25.95
73570;SHT30;61850;54.980;73.298;2023-06-04T09:24:19;41.29;26.20
73570;SHT30;61850;54.980;73.298;2023-06-04T09:26:46;41.51;25.93
73570;SHT30;61850;54.980;73.298;2023-06-04T09:29:14;42.06;25.84
73570;SHT30;61850;54.980;73.298;2023-06-04T09:31:44;42.18;25.86
73570;SHT30;61850;54.980;73.298;2023-06-04T09:34:10;42.09;25.79
73570;SHT30;61850;54.980;73.298;2023-06-04T09:36:36;41.96;25.85
73570;SHT30;61850;54.980;73.298;2023-06-04T09:39:03;42.31;26.02
73570;SHT30;61850;54.980;73.298;2023-06-04T09:41:31;42.32;25.48
73570;SHT30;61850;54.980;73.298;2023-06-04T09:44:03;42.46;25.46
73570;SHT30;61850;54.980;73.298;2023-06-04T09:46:31;42.51;25.70
73570;SHT30;61850;54.980;73.298;2023-06-04T09:49:02;42.19;25.84
73570;SHT30;61850;54.980;73.298;2023-06-04T09:51:29;42.29;26.24
73570;SHT30;61850;54.980;73.298;2023-06-04T09:53:58;42.66;25.43
73570;SHT30;61850;54.980;73.298;2023-06-04T09:56:25;42.67;25.45
73570;SHT30;61850;54.980;73.298;2023-06-04T09:58:58;42.77;25.21
73570;SHT30;61850;54.980;73.298;2023-06-04T10:01:29;42.56;25.45
73570;SHT30;61850;54.980;73.298;2023-06-04T10:03:58;42.51;25.58
73570;SHT30;61850;54.980;73.298;2023-06-04T10:06:25;42.26;25.79
73570;SHT30;61850;54.980;73.298;2023-06-04T10:08:55;42.44;25.82
73570;SHT30;61850;54.980;73.298;2023-06-04T10:11:31;42.40;25.63
73570;SHT30;61850;54.980;73.298;2023-06-04T10:14:03;42.70;25.81
73570;SHT30;61850;54.980;73.298;2023-06-04T10:16:33;42.73;25.78
73570;SHT30;61850;54.980;73.298;2023-06-04T10:19:04;42.92;25.76
73570;SHT30;61850;54.980;73.298;2023-06-04T10:21:33;42.80;25.72
73570;SHT30;61850;54.980;73.298;2023-06-04T10:24:03;42.95;26.09
73570;SHT30;61850;54.980;73.298;2023-06-04T10:26:32;42.81;26.05
73570;SHT30;61850;54.980;73.298;2023-06-04T10:29:01;43.21;25.92
73570;SHT30;61850;54.980;73.298;2023-06-04T10:31:29;43.07;25.48
73570;SHT30;61850;54.980;73.298;2023-06-04T10:33:57;43.18;25.36
73570;SHT30;61850;54.980;73.298;2023-06-04T10:36:44;42.92;25.17
73570;SHT30;61850;54.980;73.298;2023-06-04T10:39:12;42.64;25.56
73570;SHT30;61850;54.980;73.298;2023-06-04T10:41:38;43.02;25.55
73570;SHT30;61850;54.980;73.298;2023-06-04T10:44:05;43.07;25.72
73570;SHT30;61850;54.980;73.298;2023-06-04T10:46:41;42.83;26.02
73570;SHT30;61850;54.980;73.298;2023-06-04T10:49:09;42.90;25.90
73570;SHT30;61850;54.980;73.298;2023-06-04T10:51:38;43.10;25.76
73570;SHT30;61850;54.980;73.298;2023-06-04T10:54:04;43.01;25.83
73570;SHT30;61850;54.980;73.298;2023-06-04T10:56:32;43.08;25.82
73570;SHT30;61850;54.980;73.298;2023-06-04T10:59:00;43.01;26.23
73570;SHT30;61850;54.980;73.298;2023-06-04T11:01:27;42.80;26.14
73570;SHT30;61850;54.980;73.298;2023-06-04T11:03:58;42.87;26.19
73570;SHT30;61850;54.980;73.298;2023-06-04T11:06:24;43.08;25.77
73570;SHT30;61850;54.980;73.298;2023-06-04T11:09:03;43.07;25.44
73570;SHT30;61850;54.980;73.298;2023-06-04T11:11:31;43.12;25.75
73570;SHT30;61850;54.980;73.298;2023-06-04T11:14:11;42.94;25.58
73570;SHT30;61850;54.980;73.298;2023-06-04T11:16:42;42.77;25.81
73570;SHT30;61850;54.980;73.298;2023-06-04T11:19:09;43.10;25.68
73570;SHT30;61850;54.980;73.298;2023-06-04T11:21:35;42.78;25.66
73570;SHT30;61850;54.980;73.298;2023-06-04T11:24:04;43.35;25.64
73570;SHT30;61850;54.980;73.298;2023-06-04T11:26:37;43.01;25.68
73570;SHT30;61850;54.980;73.298;2023-06-04T11:29:11;42.90;25.73
73570;SHT30;61850;54.980;73.298;2023-06-04T11:31:46;42.80;25.72
73570;SHT30;61850;54.980;73.298;2023-06-04T11:34:24;42.94;25.54
73570;SHT30;61850;54.980;73.298;2023-06-04T11:36:51;43.25;25.65
73570;SHT30;61850;54.980;73.298;2023-06-04T11:39:21;43.12;25.75
73570;SHT30;61850;54.980;73.298;2023-06-04T11:41:56;43.52;25.23
73570;SHT30;61850;54.980;73.298;2023-06-04T11:44:23;43.53;25.51
73570;SHT30;61850;54.980;73.298;2023-06-04T11:46:50;43.68;25.12
73570;SHT30;61850;54.980;73.298;2023-06-04T11:49:19;43.49;25.27
73570;SHT30;61850;54.980;73.298;2023-06-04T11:51:51;42.95;25.73
73570;SHT30;61850;54.980;73.298;2023-06-04T11:54:20;43.22;25.57
73570;SHT30;61850;54.980;73.298;2023-06-04T11:56:49;43.18;25.64
73570;SHT30;61850;54.980;73.298;2023-06-04T11:59:17;43.26;25.92
73570;SHT30;61850;54.980;73.298;2023-06-04T12:01:45;43.48;26.11
73570;SHT30;61850;54.980;73.298;2023-06-04T12:04:17;43.50;25.31
73570;SHT30;61850;54.980;73.298;2023-06-04T12:06:54;43.62;25.43
73570;SHT30;61850;54.980;73.298;2023-06-04T12:09:24;43.42;25.94
73570;SHT30;61850;54.980;73.298;2023-06-04T12:12:00;43.02;25.52
73570;SHT30;61850;54.980;73.298;2023-06-04T12:14:27;43.18;25.56
73570;SHT30;61850;54.980;73.298;2023-06-04T12:17:01;42.94;25.68
73570;SHT30;61850;54.980;73.298;2023-06-04T12:19:28;43.12;26.50
73570;SHT30;61850;54.980;73.298;2023-06-04T12:22:02;42.67;26.30
73570;SHT30;61850;54.980;73.298;2023-06-04T12:24:32;42.68;25.87
73570;SHT30;61850;54.980;73.298;2023-06-04T12:27:08;42.64;25.79
73570;SHT30;61850;54.980;73.298;2023-06-04T12:29:37;42.51;25.92
73570;SHT30;61850;54.980;73.298;2023-06-04T12:32:05;42.47;26.61
73570;SHT30;61850;54.980;73.298;2023-06-04T12:34:40;42.12;26.21
73570;SHT30;61850;54.980;73.298;2023-06-04T12:37:08;42.59;26.10
73570;SHT30;61850;54.980;73.298;2023-06-04T12:39:36;42.73;25.92
73570;SHT30;61850;54.980;73.298;2023-06-04T12:42:05;42.85;25.83
73570;SHT30;61850;54.980;73.298;2023-06-04T12:44:32;42.74;25.93
73570;SHT30;61850;54.980;73.298;2023-06-04T12:46:59;43.31;25.74
73570;SHT30;61850;54.980;73.298;2023-06-04T12:49:25;42.74;26.40
73570;SHT30;61850;54.980;73.298;2023-06-04T12:51:52;42.68;26.22
73570;SHT30;61850;54.980;73.298;2023-06-04T12:54:18;42.32;26.07
73570;SHT30;61850;54.980;73.298;2023-06-04T12:56:44;42.31;26.19
73570;SHT30;61850;54.980;73.298;2023-06-04T12:59:10;42.40;26.09
73570;SHT30;61850;54.980;73.298;2023-06-04T13:01:36;42.29;26.49
73570;SHT30;61850;54.980;73.298;2023-06-04T13:04:05;41.92;26.59
73570;SHT30;61850;54.980;73.298;2023-06-04T13:06:34;42.01;26.68
73570;SHT30;61850;54.980;73.298;2023-06-04T13:09:02;42.15;26.60
73570;SHT30;61850;54.980;73.298;2023-06-04T13:11:29;42.14;26.47
73570;SHT30;61850;54.980;73.298;2023-06-04T13:13:56;41.99;26.28
73570;SHT30;61850;54.980;73.298;2023-06-04T13:16:22;42.23;26.07
73570;SHT30;61850;54.980;73.298;2023-06-04T13:18:48;42.09;26.43
73570;SHT30;61850;54.980;73.298;2023-06-04T13:21:14;41.58;27.32
73570;SHT30;61850;54.980;73.298;2023-06-04T13:23:40;41.36;27.56
73570;SHT30;61850;54.980;73.298;2023-06-04T13:26:07;41.44;27.02
73570;SHT30;61850;54.980;73.298;2023-06-04T13:28:34;41.29;27.25
73570;SHT30;61850;54.980;73.298;2023-06-04T13:31:00;41.22;27.37
73570;SHT30;61850;54.980;73.298;2023-06-04T13:33:26;41.33;27.35
73570;SHT30;61850;54.980;73.298;2023-06-04T13:35:53;41.20;27.47
73570;SHT30;61850;54.980;73.298;2023-06-04T13:38:19;40.96;27.76
73570;SHT30;61850;54.980;73.298;2023-06-04T13:40:45;40.76;27.95
73570;SHT30;61850;54.980;73.298;2023-06-04T13:43:12;40.45;27.98
73570;SHT30;61850;54.980;73.298;2023-06-04T13:45:39;39.87;28.85
73570;SHT30;61850;54.980;73.298;2023-06-04T13:48:05;39.22;29.39
73570;SHT30;61850;54.980;73.298;2023-06-04T13:50:33;38.53;29.71
73570;SHT30;61850;54.980;73.298;2023-06-04T13:53:00;38.09;30.04
73570;SHT30;61850;54.980;73.298;2023-06-04T13:55:26;37.68;30.25
73570;SHT30;61850;54.980;73.298;2023-06-04T13:57:52;37.30;30.81
73570;SHT30;61850;54.980;73.298;2023-06-04T14:00:18;37.01;31.52
73570;SHT30;61850;54.980;73.298;2023-06-04T14:02:48;36.66;32.00
73570;SHT30;61850;54.980;73.298;2023-06-04T14:05:14;36.39;32.04
73570;SHT30;61850;54.980;73.298;2023-06-04T14:07:42;36.33;32.09
73570;SHT30;61850;54.980;73.298;2023-06-04T14:10:11;36.14;32.74
73570;SHT30;61850;54.980;73.298;2023-06-04T14:12:38;35.84;32.84
73570;SHT30;61850;54.980;73.298;2023-06-04T14:15:10;35.56;32.74
73570;SHT30;61850;54.980;73.298;2023-06-04T14:17:38;35.36;32.88
73570;SHT30;61850;54.980;73.298;2023-06-04T14:20:05;35.22;33.31
73570;SHT30;61850;54.980;73.298;2023-06-04T14:22:38;35.09;33.59
73570;SHT30;61850;54.980;73.298;2023-06-04T14:25:06;34.99;33.72
73570;SHT30;61850;54.980;73.298;2023-06-04T14:27:33;34.86;33.74
73570;SHT30;61850;54.980;73.298;2023-06-04T14:30:03;34.77;34.03
73570;SHT30;61850;54.980;73.298;2023-06-04T14:32:30;34.71;34.32
73570;SHT30;61850;54.980;73.298;2023-06-04T14:34:57;34.52;34.02
73570;SHT30;61850;54.980;73.298;2023-06-04T14:37:23;34.47;34.58
73570;SHT30;61850;54.980;73.298;2023-06-04T14:39:50;34.36;34.61
73570;SHT30;61850;54.980;73.298;2023-06-04T14:42:17;34.25;35.01
73570;SHT30;61850;54.980;73.298;2023-06-04T14:44:43;34.07;34.97
73570;SHT30;61850;54.980;73.298;2023-06-04T14:47:10;34.03;35.28
73570;SHT30;61850;54.980;73.298;2023-06-04T14:49:36;33.94;35.44
73570;SHT30;61850;54.980;73.298;2023-06-04T14:52:03;33.80;35.51
73570;SHT30;61850;54.980;73.298;2023-06-04T14:54:29;33.66;35.75
73570;SHT30;61850;54.980;73.298;2023-06-04T14:56:56;33.58;35.97
73570;SHT30;61850;54.980;73.298;2023-06-04T14:59:22;33.45;36.30
73570;SHT30;61850;54.980;73.298;2023-06-04T15:01:48;33.31;36.50
73570;SHT30;61850;54.980;73.298;2023-06-04T15:04:14;33.25;36.54
73570;SHT30;61850;54.980;73.298;2023-06-04T15:06:41;33.34;36.25
73570;SHT30;61850;54.980;73.298;2023-06-04T15:09:07;33.29;36.67
73570;SHT30;61850;54.980;73.298;2023-06-04T15:11:33;33.21;36.86
73570;SHT30;61850;54.980;73.298;2023-06-04T15:13:59;33.17;36.86
73570;SHT30;61850;54.980;73.298;2023-06-04T15:16:25;33.11;36.77
73570;SHT30;61850;54.980;73.298;2023-06-04T15:18:51;33.08;36.93
73570;SHT30;61850;54.980;73.298;2023-06-04T15:21:17;32.97;36.81
73570;SHT30;61850;54.980;73.298;2023-06-04T15:23:46;32.87;37.17
73570;SHT30;61850;54.980;73.298;2023-06-04T15:26:15;32.74;37.22
73570;SHT30;61850;54.980;73.298;2023-06-04T15:28:41;32.63;37.36